sensor_id;sensor_type;location;lat;lon;timestamp;pressure;altitude;pressure_sealevel;temperature;humidity
59951;BME280;45812;53.540;9.774;2023-04-03T00:02:10;103320.00;;;1.40;100.00
59951;BME280;45812;53.540;9.774;2023-04-03T00:04:36;103329.50;;;1.44;100.00
59951;BME280;45812;53.540;9.774;2023-04-03T00:07:01;103328.63;;;1.44;100.00
59951;BME280;45812;53.540;9.774;2023-04-03T00:09:26;103322.56;;;1.42;100.00
59951;BME280;45812;53.540;9.774;2023-04-03T00:11:51;103322.53;;;1.43;100.00
59951;BME280;45812;53.540;9.774;2023-04-03T00:14:17;103328.03;;;1.34;100.00
59951;BME280;45812;53.540;9.774;2023-04-03T00:16:42;103331.66;;;1.30;100.00
59951;BME280;45812;53.540;9.774;2023-04-03T00:19:08;103330.00;;;1.26;100.00
59951;BME280;45812;53.540;9.774;2023-04-03T00:21:33;103330.13;;;1.21;100.00
59951;BME280;45812;53.540;9.774;2023-04-03T00:23:58;103333.69;;;1.19;100.00
59951;BME280;45812;53.540;9.774;2023-04-03T00:26:24;103332.00;;;1.16;100.00
59951;BME280;45812;53.540;9.774;2023-04-03T00:28:49;103325.94;;;1.14;100.00
59951;BME280;45812;53.540;9.774;2023-04-03T00:31:15;103325.81;;;1.19;100.00
59951;BME280;45812;53.540;9.774;2023-04-03T00:33:41;103322.34;;;1.18;100.00
59951;BME280;45812;53.540;9.774;2023-04-03T00:36:08;103330.22;;;1.18;100.00
59951;BME280;45812;53.540;9.774;2023-04-03T00:38:34;103332.97;;;1.14;100.00
59951;BME280;45812;53.540;9.774;2023-04-03T00:40:59;103339.13;;;1.11;100.00
59951;BME280;45812;53.540;9.774;2023-04-03T00:43:25;103335.75;;;1.06;100.00
59951;BME280;45812;53.540;9.774;2023-04-03T00:45:57;103336.63;;;1.07;100.00
59951;BME280;45812;53.540;9.774;2023-04-03T00:48:35;103340.97;;;1.08;100.00
59951;BME280;45812;53.540;9.774;2023-04-03T00:51:03;103340.22;;;1.03;100.00
59951;BME280;45812;53.540;9.774;2023-04-03T00:53:35;103336.75;;;1.02;100.00
59951;BME280;45812;53.540;9.774;2023-04-03T00:56:05;103345.59;;;0.98;100.00
59951;BME280;45812;53.540;9.774;2023-04-03T00:58:35;103342.16;;;0.96;100.00
59951;BME280;45812;53.540;9.774;2023-04-03T01:01:06;103338.75;;;0.91;100.00
59951;BME280;45812;53.540;9.774;2023-04-03T01:03:33;103342.31;;;0.88;100.00
59951;BME280;45812;53.540;9.774;2023-04-03T01:05:59;103344.16;;;0.85;100.00
59951;BME280;45812;53.540;9.774;2023-04-03T01:08:24;103338.16;;;0.81;100.00
59951;BME280;45812;53.540;9.774;2023-04-03T01:10:49;103336.34;;;0.83;100.00
59951;BME280;45812;53.540;9.774;2023-04-03T01:13:25;103344.94;;;0.88;100.00
59951;BME280;45812;53.540;9.774;2023-04-03T01:15:51;103339.75;;;0.87;100.00
59951;BME280;45812;53.540;9.774;2023-04-03T01:18:17;103342.28;;;0.90;100.00
59951;BME280;45812;53.540;9.774;2023-04-03T01:21:06;103343.19;;;0.89;100.00
59951;BME280;45812;53.540;9.774;2023-04-03T01:23:40;103334.47;;;0.88;100.00
59951;BME280;45812;53.540;9.774;2023-04-03T01:26:10;103342.41;;;0.85;100.00
59951;BME280;45812;53.540;9.774;2023-04-03T01:28:36;103339.00;;;0.82;100.00
59951;BME280;45812;53.540;9.774;2023-04-03T01:31:21;103336.38;;;0.82;100.00
59951;BME280;45812;53.540;9.774;2023-04-03T01:33:47;103338.22;;;0.78;100.00
59951;BME280;45812;53.540;9.774;2023-04-03T01:36:18;103334.72;;;0.79;100.00
59951;BME280;45812;53.540;9.774;2023-04-03T01:38:44;103338.22;;;0.78;100.00
59951;BME280;45812;53.540;9.774;2023-04-03T01:41:09;103339.16;;;0.76;100.00
59951;BME280;45812;53.540;9.774;2023-04-03T01:43:35;103345.28;;;0.76;100.00
59951;BME280;45812;53.540;9.774;2023-04-03T01:46:00;103346.13;;;0.77;100.00
59951;BME280;45812;53.540;9.774;2023-04-03T01:48:25;103355.81;;;0.75;100.00
59951;BME280;45812;53.540;9.774;2023-04-03T01:50:50;103346.25;;;0.71;100.00
59951;BME280;45812;53.540;9.774;2023-04-03T01:53:16;103344.56;;;0.68;100.00
59951;BME280;45812;53.540;9.774;2023-04-03T01:55:41;103346.34;;;0.68;100.00
59951;BME280;45812;53.540;9.774;2023-04-03T01:58:06;103351.56;;;0.68;100.00
59951;BME280;45812;53.540;9.774;2023-04-03T02:00:31;103348.13;;;0.66;100.00
59951;BME280;45812;53.540;9.774;2023-04-03T02:02:57;103347.19;;;0.68;100.00
59951;BME280;45812;53.540;9.774;2023-04-03T02:05:22;103349.78;;;0.70;100.00
59951;BME280;45812;53.540;9.774;2023-04-03T02:07:47;103341.00;;;0.71;100.00
59951;BME280;45812;53.540;9.774;2023-04-03T02:10:13;103351.50;;;0.71;100.00
59951;BME280;45812;53.540;9.774;2023-04-03T02:12:38;103350.59;;;0.72;100.00
59951;BME280;45812;53.540;9.774;2023-04-03T02:15:04;103340.22;;;0.67;100.00
59951;BME280;45812;53.540;9.774;2023-04-03T02:17:29;103355.97;;;0.67;100.00
59951;BME280;45812;53.540;9.774;2023-04-03T02:19:55;103349.06;;;0.63;100.00
59951;BME280;45812;53.540;9.774;2023-04-03T02:22:20;103357.09;;;0.57;100.00
59951;BME280;45812;53.540;9.774;2023-04-03T02:24:45;103355.53;;;0.48;100.00
59951;BME280;45812;53.540;9.774;2023-04-03T02:27:10;103354.75;;;0.45;100.00
59951;BME280;45812;53.540;9.774;2023-04-03T02:29:36;103361.72;;;0.46;100.00
59951;BME280;45812;53.540;9.774;2023-04-03T02:32:01;103363.50;;;0.44;100.00
59951;BME280;45812;53.540;9.774;2023-04-03T02:34:26;103363.56;;;0.41;100.00
59951;BME280;45812;53.540;9.774;2023-04-03T02:36:52;103366.16;;;0.42;100.00
59951;BME280;45812;53.540;9.774;2023-04-03T02:39:17;103356.66;;;0.37;100.00
59951;BME280;45812;53.540;9.774;2023-04-03T02:41:42;103362.75;;;0.37;100.00
59951;BME280;45812;53.540;9.774;2023-04-03T02:44:09;103364.59;;;0.34;100.00
59951;BME280;45812;53.540;9.774;2023-04-03T02:46:35;103363.84;;;0.28;100.00
59951;BME280;45812;53.540;9.774;2023-04-03T02:49:00;103371.66;;;0.30;100.00
59951;BME280;45812;53.540;9.774;2023-04-03T02:51:25;103369.78;;;0.35;100.00
59951;BME280;45812;53.540;9.774;2023-04-03T02:53:51;103378.44;;;0.40;100.00
59951;BME280;45812;53.540;9.774;2023-04-03T02:56:16;103364.44;;;0.41;100.00
59951;BME280;45812;53.540;9.774;2023-04-03T02:58:43;103370.66;;;0.36;100.00
59951;BME280;45812;53.540;9.774;2023-04-03T03:01:09;103368.09;;;0.33;100.00
59951;BME280;45812;53.540;9.774;2023-04-03T03:03:34;103374.16;;;0.35;100.00
59951;BME280;45812;53.540;9.774;2023-04-03T03:06:12;103365.34;;;0.40;100.00
59951;BME280;45812;53.540;9.774;2023-04-03T03:08:37;103364.50;;;0.37;100.00
59951;BME280;45812;53.540;9.774;2023-04-03T03:11:03;103354.03;;;0.38;100.00
59951;BME280;45812;53.540;9.774;2023-04-03T03:13:29;103366.28;;;0.36;100.00
59951;BME280;45812;53.540;9.774;2023-04-03T03:15:55;103357.50;;;0.39;100.00
59951;BME280;45812;53.540;9.774;2023-04-03T03:18:21;103365.38;;;0.39;100.00
59951;BME280;45812;53.540;9.774;2023-04-03T03:20:46;103367.22;;;0.34;100.00
59951;BME280;45812;53.540;9.774;2023-04-03T03:23:12;103365.53;;;0.31;100.00
59951;BME280;45812;53.540;9.774;2023-04-03T03:25:40;103373.44;;;0.28;100.00
59951;BME280;45812;53.540;9.774;2023-04-03T03:28:06;103372.47;;;0.32;100.00
59951;BME280;45812;53.540;9.774;2023-04-03T03:30:32;103376.94;;;0.28;100.00
59951;BME280;45812;53.540;9.774;2023-04-03T03:32:57;103371.81;;;0.24;100.00
59951;BME280;45812;53.540;9.774;2023-04-03T03:35:22;103377.16;;;0.19;100.00
59951;BME280;45812;53.540;9.774;2023-04-03T03:37:47;103375.50;;;0.14;100.00
59951;BME280;45812;53.540;9.774;2023-04-03T03:40:13;103372.91;;;0.12;100.00
59951;BME280;45812;53.540;9.774;2023-04-03T03:42:38;103372.97;;;0.09;100.00
59951;BME280;45812;53.540;9.774;2023-04-03T03:45:04;103373.03;;;0.08;100.00
59951;BME280;45812;53.540;9.774;2023-04-03T03:47:30;103374.81;;;0.06;100.00
59951;BME280;45812;53.540;9.774;2023-04-03T03:49:55;103380.94;;;0.05;100.00
59951;BME280;45812;53.540;9.774;2023-04-03T03:52:20;103371.41;;;0.02;100.00
59951;BME280;45812;53.540;9.774;2023-04-03T03:54:46;103367.06;;;-0.01;100.00
59951;BME280;45812;53.540;9.774;2023-04-03T03:57:11;103379.31;;;-0.03;100.00
59951;BME280;45812;53.540;9.774;2023-04-03T03:59:36;103382.97;;;-0.10;100.00
59951;BME280;45812;53.540;9.774;2023-04-03T04:02:01;103376.94;;;-0.13;100.00
59951;BME280;45812;53.540;9.774;2023-04-03T04:04:27;103373.56;;;-0.18;100.00
59951;BME280;45812;53.540;9.774;2023-04-03T04:06:52;103375.41;;;-0.25;100.00
59951;BME280;45812;53.540;9.774;2023-04-03T04:09:17;103375.50;;;-0.29;100.00
59951;BME280;45812;53.540;9.774;2023-04-03T04:11:43;103375.59;;;-0.34;100.00
59951;BME280;45812;53.540;9.774;2023-04-03T04:14:08;103379.13;;;-0.35;100.00
59951;BME280;45812;53.540;9.774;2023-04-03T04:16:35;103376.53;;;-0.38;100.00
59951;BME280;45812;53.540;9.774;2023-04-03T04:19:00;103380.03;;;-0.39;100.00
59951;BME280;45812;53.540;9.774;2023-04-03T04:21:26;103385.38;;;-0.44;100.00
59951;BME280;45812;53.540;9.774;2023-04-03T04:23:51;103389.00;;;-0.51;100.00
59951;BME280;45812;53.540;9.774;2023-04-03T04:26:16;103381.25;;;-0.55;100.00
59951;BME280;45812;53.540;9.774;2023-04-03T04:28:42;103389.94;;;-0.56;100.00
59951;BME280;45812;53.540;9.774;2023-04-03T04:31:07;103392.56;;;-0.56;100.00
59951;BME280;45812;53.540;9.774;2023-04-03T04:33:32;103393.53;;;-0.61;100.00
59951;BME280;45812;53.540;9.774;2023-04-03T04:35:57;103398.03;;;-0.69;100.00
59951;BME280;45812;53.540;9.774;2023-04-03T04:38:23;103398.03;;;-0.69;100.00
59951;BME280;45812;53.540;9.774;2023-04-03T04:40:48;103400.66;;;-0.69;100.00
59951;BME280;45812;53.540;9.774;2023-04-03T04:43:14;103402.34;;;-0.66;100.00
59951;BME280;45812;53.540;9.774;2023-04-03T04:45:40;103404.94;;;-0.65;100.00
59951;BME280;45812;53.540;9.774;2023-04-03T04:48:06;103412.75;;;-0.63;100.00
59951;BME280;45812;53.540;9.774;2023-04-03T04:50:31;103424.97;;;-0.64;100.00
59951;BME280;45812;53.540;9.774;2023-04-03T04:52:56;103423.22;;;-0.63;100.00
59951;BME280;45812;53.540;9.774;2023-04-03T04:55:21;103417.13;;;-0.64;100.00
59951;BME280;45812;53.540;9.774;2023-04-03T04:57:47;103415.34;;;-0.62;100.00
59951;BME280;45812;53.540;9.774;2023-04-03T05:00:12;103419.72;;;-0.62;100.00
59951;BME280;45812;53.540;9.774;2023-04-03T05:02:38;103430.97;;;-0.58;100.00
59951;BME280;45812;53.540;9.774;2023-04-03T05:05:03;103425.75;;;-0.58;100.00
59951;BME280;45812;53.540;9.774;2023-04-03T05:07:29;103424.03;;;-0.59;100.00
59951;BME280;45812;53.540;9.774;2023-04-03T05:09:54;103421.38;;;-0.58;100.00
59951;BME280;45812;53.540;9.774;2023-04-03T05:12:19;103432.69;;;-0.54;100.00
59951;BME280;45812;53.540;9.774;2023-04-03T05:14:44;103423.00;;;-0.49;100.00
59951;BME280;45812;53.540;9.774;2023-04-03T05:17:10;103432.34;;;-0.36;100.00
59951;BME280;45812;53.540;9.774;2023-04-03T05:19:35;103433.88;;;-0.26;100.00
59951;BME280;45812;53.540;9.774;2023-04-03T05:22:00;103436.28;;;-0.14;100.00
59951;BME280;45812;53.540;9.774;2023-04-03T05:24:25;103434.31;;;-0.03;100.00
59951;BME280;45812;53.540;9.774;2023-04-03T05:26:51;103427.94;;;0.11;100.00
59951;BME280;45812;53.540;9.774;2023-04-03T05:29:16;103436.56;;;0.16;100.00
59951;BME280;45812;53.540;9.774;2023-04-03T05:31:41;103440.00;;;0.18;100.00
59951;BME280;45812;53.540;9.774;2023-04-03T05:34:07;103433.84;;;0.22;100.00
59951;BME280;45812;53.540;9.774;2023-04-03T05:36:32;103437.91;;;0.35;100.00
59951;BME280;45812;53.540;9.774;2023-04-03T05:38:57;103442.94;;;0.46;100.00
59951;BME280;45812;53.540;9.774;2023-04-03T05:41:23;103452.56;;;0.45;100.00
59951;BME280;45812;53.540;9.774;2023-04-03T05:43:48;103448.03;;;0.52;100.00
59951;BME280;45812;53.540;9.774;2023-04-03T05:46:16;103451.44;;;0.55;100.00
59951;BME280;45812;53.540;9.774;2023-04-03T05:48:42;103448.81;;;0.57;100.00
59951;BME280;45812;53.540;9.774;2023-04-03T05:51:14;103450.41;;;0.64;100.00
59951;BME280;45812;53.540;9.774;2023-04-03T05:53:41;103454.63;;;0.70;100.00
59951;BME280;45812;53.540;9.774;2023-04-03T05:56:06;103449.28;;;0.76;100.00
59951;BME280;45812;53.540;9.774;2023-04-03T05:58:31;103449.97;;;0.82;100.00
59951;BME280;45812;53.540;9.774;2023-04-03T06:00:57;103450.72;;;0.87;100.00
59951;BME280;45812;53.540;9.774;2023-04-03T06:03:22;103462.88;;;0.93;100.00
59951;BME280;45812;53.540;9.774;2023-04-03T06:05:47;103459.25;;;0.97;100.00
59951;BME280;45812;53.540;9.774;2023-04-03T06:08:13;103448.69;;;1.00;100.00
59951;BME280;45812;53.540;9.774;2023-04-03T06:10:39;103466.88;;;1.08;100.00
59951;BME280;45812;53.540;9.774;2023-04-03T06:13:05;103464.16;;;1.12;100.00
59951;BME280;45812;53.540;9.774;2023-04-03T06:15:31;103467.53;;;1.17;100.00
59951;BME280;45812;53.540;9.774;2023-04-03T06:17:56;103473.50;;;1.23;100.00
59951;BME280;45812;53.540;9.774;2023-04-03T06:20:22;103471.59;;;1.29;100.00
59951;BME280;45812;53.540;9.774;2023-04-03T06:22:47;103480.13;;;1.39;100.00
59951;BME280;45812;53.540;9.774;2023-04-03T06:25:12;103472.09;;;1.45;100.00
59951;BME280;45812;53.540;9.774;2023-04-03T06:27:38;103478.94;;;1.52;100.00
59951;BME280;45812;53.540;9.774;2023-04-03T06:30:04;103469.91;;;1.62;100.00
59951;BME280;45812;53.540;9.774;2023-04-03T06:32:30;103472.38;;;1.68;100.00
59951;BME280;45812;53.540;9.774;2023-04-03T06:34:55;103476.56;;;1.75;100.00
59951;BME280;45812;53.540;9.774;2023-04-03T06:37:22;103477.97;;;1.89;98.12
59951;BME280;45812;53.540;9.774;2023-04-03T06:39:51;103476.88;;;1.96;98.23
59951;BME280;45812;53.540;9.774;2023-04-03T06:42:16;103474.94;;;2.02;97.90
59951;BME280;45812;53.540;9.774;2023-04-03T06:44:41;103479.06;;;2.12;97.99
59951;BME280;45812;53.540;9.774;2023-04-03T06:47:10;103471.03;;;2.17;97.29
59951;BME280;45812;53.540;9.774;2023-04-03T06:49:36;103481.22;;;2.29;97.23
59951;BME280;45812;53.540;9.774;2023-04-03T06:52:02;103486.25;;;2.37;96.17
59951;BME280;45812;53.540;9.774;2023-04-03T06:54:27;103482.50;;;2.46;95.52
59951;BME280;45812;53.540;9.774;2023-04-03T06:56:52;103493.56;;;2.57;94.79
59951;BME280;45812;53.540;9.774;2023-04-03T06:59:18;103494.19;;;2.65;95.44
59951;BME280;45812;53.540;9.774;2023-04-03T07:01:43;103497.44;;;2.73;94.88
59951;BME280;45812;53.540;9.774;2023-04-03T07:04:08;103501.53;;;2.83;94.16
59951;BME280;45812;53.540;9.774;2023-04-03T07:06:34;103497.81;;;2.90;93.43
59951;BME280;45812;53.540;9.774;2023-04-03T07:09:00;103498.44;;;2.98;92.44
59951;BME280;45812;53.540;9.774;2023-04-03T07:11:25;103504.31;;;3.07;91.63
59951;BME280;45812;53.540;9.774;2023-04-03T07:13:51;103502.28;;;3.15;91.44
59951;BME280;45812;53.540;9.774;2023-04-03T07:16:16;103502.81;;;3.26;91.25
59951;BME280;45812;53.540;9.774;2023-04-03T07:18:42;103505.94;;;3.39;91.04
59951;BME280;45812;53.540;9.774;2023-04-03T07:21:07;103509.88;;;3.52;90.52
59951;BME280;45812;53.540;9.774;2023-04-03T07:23:32;103511.28;;;3.62;89.98
59951;BME280;45812;53.540;9.774;2023-04-03T07:25:58;103499.56;;;3.72;90.54
59951;BME280;45812;53.540;9.774;2023-04-03T07:28:24;103503.56;;;3.82;87.92
59951;BME280;45812;53.540;9.774;2023-04-03T07:30:59;103501.50;;;3.92;88.34
59951;BME280;45812;53.540;9.774;2023-04-03T07:33:25;103504.59;;;4.03;88.21
59951;BME280;45812;53.540;9.774;2023-04-03T07:35:50;103503.38;;;4.13;86.25
59951;BME280;45812;53.540;9.774;2023-04-03T07:38:16;103504.81;;;4.22;86.03
59951;BME280;45812;53.540;9.774;2023-04-03T07:40:46;103502.66;;;4.33;84.31
59951;BME280;45812;53.540;9.774;2023-04-03T07:43:12;103493.59;;;4.40;83.40
59951;BME280;45812;53.540;9.774;2023-04-03T07:45:37;103502.94;;;4.49;82.92
59951;BME280;45812;53.540;9.774;2023-04-03T07:48:03;103502.66;;;4.56;81.39
59951;BME280;45812;53.540;9.774;2023-04-03T07:50:28;103493.53;;;4.65;80.76
59951;BME280;45812;53.540;9.774;2023-04-03T07:52:55;103496.75;;;4.73;80.54
59951;BME280;45812;53.540;9.774;2023-04-03T07:55:22;103491.22;;;4.79;80.22
59951;BME280;45812;53.540;9.774;2023-04-03T07:57:47;103503.16;;;4.90;80.04
59951;BME280;45812;53.540;9.774;2023-04-03T08:00:13;103491.28;;;5.00;78.92
59951;BME280;45812;53.540;9.774;2023-04-03T08:02:39;103495.31;;;5.10;77.60
59951;BME280;45812;53.540;9.774;2023-04-03T08:05:05;103494.00;;;5.20;76.56
59951;BME280;45812;53.540;9.774;2023-04-03T08:07:30;103502.28;;;5.33;76.69
59951;BME280;45812;53.540;9.774;2023-04-03T08:09:55;103500.16;;;5.42;74.98
59951;BME280;45812;53.540;9.774;2023-04-03T08:12:21;103493.59;;;5.51;73.86
59951;BME280;45812;53.540;9.774;2023-04-03T08:14:46;103493.41;;;5.56;71.62
59951;BME280;45812;53.540;9.774;2023-04-03T08:17:11;103498.19;;;5.68;71.46
59951;BME280;45812;53.540;9.774;2023-04-03T08:19:38;103500.31;;;5.80;71.10
59951;BME280;45812;53.540;9.774;2023-04-03T08:22:03;103497.91;;;5.96;70.50
59951;BME280;45812;53.540;9.774;2023-04-03T08:24:29;103493.66;;;6.12;67.05
59951;BME280;45812;53.540;9.774;2023-04-03T08:26:55;103494.75;;;6.27;64.80
59951;BME280;45812;53.540;9.774;2023-04-03T08:29:21;103494.94;;;6.43;66.39
59951;BME280;45812;53.540;9.774;2023-04-03T08:31:46;103488.16;;;6.56;65.77
59951;BME280;45812;53.540;9.774;2023-04-03T08:34:11;103490.16;;;6.70;65.65
59951;BME280;45812;53.540;9.774;2023-04-03T08:36:38;103489.00;;;6.75;65.93
59951;BME280;45812;53.540;9.774;2023-04-03T08:39:03;103499.75;;;6.91;64.61
59951;BME280;45812;53.540;9.774;2023-04-03T08:41:37;103492.16;;;7.19;65.70
59951;BME280;45812;53.540;9.774;2023-04-03T08:44:10;103494.00;;;7.53;62.60
59951;BME280;45812;53.540;9.774;2023-04-03T08:49:37;103501.03;;;7.54;57.20
59951;BME280;45812;53.540;9.774;2023-04-03T08:52:11;103493.75;;;7.41;55.80
59951;BME280;45812;53.540;9.774;2023-04-03T08:54:50;103490.09;;;7.43;55.52
59951;BME280;45812;53.540;9.774;2023-04-03T08:57:26;103491.59;;;7.49;57.32
59951;BME280;45812;53.540;9.774;2023-04-03T08:59:52;103494.09;;;7.52;55.44
59951;BME280;45812;53.540;9.774;2023-04-03T09:02:25;103486.75;;;7.57;53.35
59951;BME280;45812;53.540;9.774;2023-04-03T09:04:53;103481.94;;;7.65;53.00
59951;BME280;45812;53.540;9.774;2023-04-03T09:07:30;103487.53;;;7.76;53.10
59951;BME280;45812;53.540;9.774;2023-04-03T09:09:59;103488.09;;;8.00;53.71
59951;BME280;45812;53.540;9.774;2023-04-03T09:12:37;103482.00;;;8.31;50.38
59951;BME280;45812;53.540;9.774;2023-04-03T09:15:18;103486.38;;;8.65;49.13
59951;BME280;45812;53.540;9.774;2023-04-03T09:20:26;103479.38;;;9.26;45.27
59951;BME280;45812;53.540;9.774;2023-04-03T09:22:55;103478.59;;;9.39;46.12
59951;BME280;45812;53.540;9.774;2023-04-03T09:25:47;103478.38;;;10.17;44.03
59951;BME280;45812;53.540;9.774;2023-04-03T09:28:13;103478.47;;;11.53;40.60
59951;BME280;45812;53.540;9.774;2023-04-03T09:30:38;103480.44;;;12.77;37.44
59951;BME280;45812;53.540;9.774;2023-04-03T09:33:04;103474.84;;;13.75;35.61
59951;BME280;45812;53.540;9.774;2023-04-03T09:35:32;103472.72;;;14.14;33.89
59951;BME280;45812;53.540;9.774;2023-04-03T09:38:01;103475.31;;;13.10;35.50
59951;BME280;45812;53.540;9.774;2023-04-03T09:42:57;103470.94;;;12.36;36.23
59951;BME280;45812;53.540;9.774;2023-04-03T09:45:26;103461.38;;;12.44;36.02
59951;BME280;45812;53.540;9.774;2023-04-03T09:50:30;103463.72;;;15.35;31.02
59951;BME280;45812;53.540;9.774;2023-04-03T09:52:55;103454.47;;;16.82;29.62
59951;BME280;45812;53.540;9.774;2023-04-03T09:55:26;103455.47;;;17.77;28.23
59951;BME280;45812;53.540;9.774;2023-04-03T09:57:55;103452.22;;;18.93;27.39
59951;BME280;45812;53.540;9.774;2023-04-03T10:02:54;103456.63;;;19.30;26.03
59951;BME280;45812;53.540;9.774;2023-04-03T10:05:37;103448.78;;;19.19;24.99
59951;BME280;45812;53.540;9.774;2023-04-03T10:08:10;103439.44;;;21.09;23.31
59951;BME280;45812;53.540;9.774;2023-04-03T10:10:36;103438.69;;;19.90;24.39
59951;BME280;45812;53.540;9.774;2023-04-03T10:15:44;103438.72;;;19.29;26.33
59951;BME280;45812;53.540;9.774;2023-04-03T10:24:22;103437.59;;;21.67;23.22
59951;BME280;45812;53.540;9.774;2023-04-03T10:26:57;103432.69;;;21.22;22.30
59951;BME280;45812;53.540;9.774;2023-04-03T10:32:26;103424.19;;;19.91;23.67
59951;BME280;45812;53.540;9.774;2023-04-03T10:43:04;103420.59;;;16.70;27.87
59951;BME280;45812;53.540;9.774;2023-04-03T10:48:57;103416.22;;;16.69;28.32
59951;BME280;45812;53.540;9.774;2023-04-03T10:51:39;103411.84;;;19.97;24.13
59951;BME280;45812;53.540;9.774;2023-04-03T10:54:13;103396.41;;;24.81;19.22
59951;BME280;45812;53.540;9.774;2023-04-03T10:56:44;103392.22;;;24.99;19.40
59951;BME280;45812;53.540;9.774;2023-04-03T10:59:31;103396.63;;;22.09;21.41
59951;BME280;45812;53.540;9.774;2023-04-03T11:02:01;103385.91;;;20.63;23.11
59951;BME280;45812;53.540;9.774;2023-04-03T11:04:31;103386.16;;;23.14;20.13
59951;BME280;45812;53.540;9.774;2023-04-03T11:07:08;103386.16;;;24.83;19.91
59951;BME280;45812;53.540;9.774;2023-04-03T11:09:37;103374.91;;;26.65;17.08
59951;BME280;45812;53.540;9.774;2023-04-03T11:12:27;103379.13;;;29.63;15.69
59951;BME280;45812;53.540;9.774;2023-04-03T11:14:55;103371.84;;;31.53;13.91
59951;BME280;45812;53.540;9.774;2023-04-03T11:17:30;103363.69;;;28.37;15.44
59951;BME280;45812;53.540;9.774;2023-04-03T11:20:21;103367.44;;;25.50;16.94
59951;BME280;45812;53.540;9.774;2023-04-03T11:22:57;103360.38;;;29.78;14.65
59951;BME280;45812;53.540;9.774;2023-04-03T11:25:25;103352.19;;;32.13;13.12
59951;BME280;45812;53.540;9.774;2023-04-03T11:27:59;103366.44;;;34.44;11.58
59951;BME280;45812;53.540;9.774;2023-04-03T11:30:32;103354.28;;;36.64;10.39
59951;BME280;45812;53.540;9.774;2023-04-03T11:35:48;103354.91;;;35.26;11.41
59951;BME280;45812;53.540;9.774;2023-04-03T11:38:24;103346.16;;;35.44;11.10
59951;BME280;45812;53.540;9.774;2023-04-03T11:40:52;103343.34;;;38.43;9.97
59951;BME280;45812;53.540;9.774;2023-04-03T11:43:24;103338.94;;;40.47;8.46
59951;BME280;45812;53.540;9.774;2023-04-03T11:45:55;103341.41;;;37.35;9.35
59951;BME280;45812;53.540;9.774;2023-04-03T11:53:47;103330.84;;;42.24;7.39
59951;BME280;45812;53.540;9.774;2023-04-03T12:04:11;103313.53;;;32.37;11.61
59951;BME280;45812;53.540;9.774;2023-04-03T12:09:22;103318.78;;;27.35;15.00
59951;BME280;45812;53.540;9.774;2023-04-03T12:11:48;103307.59;;;28.40;14.39
59951;BME280;45812;53.540;9.774;2023-04-03T12:14:15;103301.56;;;32.31;11.55
59951;BME280;45812;53.540;9.774;2023-04-03T12:16:43;103298.91;;;32.08;11.97
59951;BME280;45812;53.540;9.774;2023-04-03T12:19:33;103290.41;;;32.55;11.49
59951;BME280;45812;53.540;9.774;2023-04-03T12:24:32;103296.91;;;26.89;14.93
59951;BME280;45812;53.540;9.774;2023-04-03T12:34:49;103301.56;;;22.56;18.37
59951;BME280;45812;53.540;9.774;2023-04-03T12:40:01;103284.13;;;28.75;14.70
59951;BME280;45812;53.540;9.774;2023-04-03T12:45:10;103281.06;;;34.95;10.52
59951;BME280;45812;53.540;9.774;2023-04-03T12:47:41;103274.75;;;35.67;10.81
59951;BME280;45812;53.540;9.774;2023-04-03T12:50:30;103275.59;;;32.77;12.58
59951;BME280;45812;53.540;9.774;2023-04-03T12:53:01;103279.56;;;29.85;13.83
59951;BME280;45812;53.540;9.774;2023-04-03T12:55:29;103271.56;;;27.53;15.65
59951;BME280;45812;53.540;9.774;2023-04-03T12:57:54;103276.19;;;25.53;17.14
59951;BME280;45812;53.540;9.774;2023-04-03T13:00:30;103272.28;;;23.93;18.33
59951;BME280;45812;53.540;9.774;2023-04-03T13:02:57;103277.94;;;22.80;19.50
59951;BME280;45812;53.540;9.774;2023-04-03T13:05:23;103277.78;;;26.76;16.45
59951;BME280;45812;53.540;9.774;2023-04-03T13:07:55;103276.53;;;31.24;13.61
59951;BME280;45812;53.540;9.774;2023-04-03T13:10:22;103263.22;;;34.11;11.32
59951;BME280;45812;53.540;9.774;2023-04-03T13:12:50;103266.28;;;36.24;9.52
59951;BME280;45812;53.540;9.774;2023-04-03T13:15:19;103274.53;;;39.06;8.50
59951;BME280;45812;53.540;9.774;2023-04-03T13:17:45;103264.19;;;40.44;7.64
59951;BME280;45812;53.540;9.774;2023-04-03T13:20:28;103259.44;;;41.68;6.40
59951;BME280;45812;53.540;9.774;2023-04-03T13:22:59;103257.91;;;42.91;6.04
59951;BME280;45812;53.540;9.774;2023-04-03T13:25:28;103260.84;;;42.86;5.94
59951;BME280;45812;53.540;9.774;2023-04-03T13:27:55;103258.34;;;41.78;6.55
59951;BME280;45812;53.540;9.774;2023-04-03T13:32:49;103253.91;;;34.86;9.03
59951;BME280;45812;53.540;9.774;2023-04-03T13:37:59;103246.16;;;29.89;12.98
59951;BME280;45812;53.540;9.774;2023-04-03T13:40:25;103244.44;;;27.96;14.30
59951;BME280;45812;53.540;9.774;2023-04-03T13:43:05;103249.63;;;26.49;14.90
59951;BME280;45812;53.540;9.774;2023-04-03T13:45:32;103246.38;;;30.82;13.16
59951;BME280;45812;53.540;9.774;2023-04-03T13:48:27;103247.19;;;32.27;11.69
59951;BME280;45812;53.540;9.774;2023-04-03T13:51:03;103241.94;;;29.56;12.94
59951;BME280;45812;53.540;9.774;2023-04-03T13:53:31;103232.13;;;31.20;12.08
59951;BME280;45812;53.540;9.774;2023-04-03T13:56:07;103232.78;;;34.06;10.28
59951;BME280;45812;53.540;9.774;2023-04-03T13:58:34;103235.44;;;36.77;9.12
59951;BME280;45812;53.540;9.774;2023-04-03T14:01:20;103225.88;;;38.75;8.17
59951;BME280;45812;53.540;9.774;2023-04-03T14:03:56;103234.91;;;39.90;7.57
59951;BME280;45812;53.540;9.774;2023-04-03T14:06:22;103233.72;;;41.02;6.57
59951;BME280;45812;53.540;9.774;2023-04-03T14:08:47;103228.50;;;41.37;6.63
59951;BME280;45812;53.540;9.774;2023-04-03T14:13:41;103222.28;;;41.98;5.95
59951;BME280;45812;53.540;9.774;2023-04-03T14:16:07;103216.41;;;42.31;6.00